createdAt,value
2023-01-28T00:02:05.611Z,32.20
2023-01-28T00:04:32.735Z,32.30
2023-01-28T00:06:59.735Z,32.20
2023-01-28T00:09:26.794Z,31.90
2023-01-28T00:11:53.883Z,31.70
2023-01-28T00:14:21.313Z,31.80
2023-01-28T00:16:48.306Z,31.90
2023-01-28T00:19:15.592Z,32.00
2023-01-28T00:21:43.138Z,32.10
2023-01-28T00:24:10.441Z,32.20
2023-01-28T00:26:37.577Z,32.40
2023-01-28T00:29:04.642Z,32.40
2023-01-28T00:31:31.759Z,32.40
2023-01-28T00:33:58.895Z,32.20
2023-01-28T00:36:27.145Z,32.30
2023-01-28T00:38:56.794Z,32.40
2023-01-28T00:41:26.167Z,32.50
2023-01-28T00:43:53.809Z,32.50
2023-01-28T00:46:22.790Z,32.30
2023-01-28T00:48:50.129Z,32.30
2023-01-28T00:51:19.949Z,32.10
2023-01-28T00:53:47.359Z,32.20
2023-01-28T00:56:16.194Z,32.20
2023-01-28T00:58:43.757Z,32.30
2023-01-28T01:01:27.040Z,32.40
2023-01-28T01:04:03.052Z,32.60
2023-01-28T01:06:33.883Z,32.60
2023-01-28T01:09:01.458Z,32.50
2023-01-28T01:11:28.738Z,32.70
2023-01-28T01:13:58.625Z,32.70
2023-01-28T01:16:28.677Z,32.70
2023-01-28T01:18:56.964Z,32.80
2023-01-28T01:21:26.848Z,32.70
2023-01-28T01:23:55.377Z,32.60
2023-01-28T01:26:23.193Z,32.70
2023-01-28T01:28:51.581Z,32.60
2023-01-28T01:31:21.405Z,32.60
2023-01-28T01:33:50.104Z,32.60
2023-01-28T01:36:19.652Z,32.50
2023-01-28T01:38:46.805Z,32.50
2023-01-28T01:41:30.015Z,32.50
2023-01-28T01:44:00.907Z,32.60
2023-01-28T01:46:27.862Z,32.60
2023-01-28T01:48:57.352Z,32.40
2023-01-28T01:51:31.930Z,32.40
2023-01-28T01:54:00.590Z,32.30
2023-01-28T01:56:33.381Z,32.40
2023-01-28T01:59:01.164Z,32.50
2023-01-28T02:01:31.080Z,32.60
2023-01-28T02:04:09.271Z,32.60
2023-01-28T02:06:37.983Z,32.50
2023-01-28T02:09:21.866Z,32.50
2023-01-28T02:11:49.622Z,32.60
2023-01-28T02:14:30.496Z,32.50
2023-01-28T02:16:59.919Z,32.10
2023-01-28T02:19:41.047Z,31.00
2023-01-28T02:22:36.635Z,31.20
2023-01-28T02:25:42.494Z,31.40
2023-01-28T02:28:42.985Z,31.70
2023-01-28T02:31:29.086Z,32.00
2023-01-28T02:34:05.174Z,32.00
2023-01-28T02:36:56.824Z,31.50
2023-01-28T02:39:34.803Z,31.70
2023-01-28T02:42:38.171Z,31.80
2023-01-28T02:45:24.077Z,31.60
2023-01-28T02:47:58.736Z,31.70
2023-01-28T02:51:00.030Z,31.20
2023-01-28T02:53:44.216Z,31.30
2023-01-28T02:56:29.807Z,31.70
2023-01-28T02:59:23.049Z,32.00
2023-01-28T03:01:58.495Z,32.10
2023-01-28T03:04:34.802Z,32.30
2023-01-28T03:07:07.133Z,32.30
2023-01-28T03:09:35.809Z,32.30
2023-01-28T03:12:27.281Z,32.30
2023-01-28T03:15:40.402Z,32.40
2023-01-28T03:18:42.398Z,32.50
2023-01-28T03:21:50.075Z,32.50
2023-01-28T03:24:56.422Z,32.60
2023-01-28T03:27:46.217Z,32.50
2023-01-28T03:30:52.081Z,32.40
2023-01-28T03:33:37.991Z,32.50
2023-01-28T03:36:25.419Z,32.50
2023-01-28T03:38:52.637Z,32.60
2023-01-28T03:41:24.590Z,32.60
2023-01-28T03:43:52.018Z,32.70
2023-01-28T03:46:19.323Z,32.60
2023-01-28T03:48:46.536Z,32.40
2023-01-28T03:51:13.878Z,32.50
2023-01-28T03:53:40.939Z,32.50
2023-01-28T03:56:09.064Z,32.60
2023-01-28T03:58:54.228Z,32.50
2023-01-28T04:01:21.926Z,32.50
2023-01-28T04:03:49.061Z,32.40
2023-01-28T04:06:16.041Z,32.40
2023-01-28T04:08:48.491Z,32.30
2023-01-28T04:11:15.896Z,32.50
2023-01-28T04:13:44.275Z,32.30
2023-01-28T04:16:16.258Z,32.50
2023-01-28T04:18:44.471Z,32.30
2023-01-28T04:21:12.551Z,32.50
2023-01-28T04:23:39.678Z,32.50
2023-01-28T04:26:06.910Z,32.50
2023-01-28T04:28:34.009Z,32.50
2023-01-28T04:31:01.120Z,32.50
2023-01-28T04:33:28.330Z,32.50
2023-01-28T04:35:55.338Z,32.40
2023-01-28T04:38:22.480Z,32.50
2023-01-28T04:40:53.611Z,32.50
2023-01-28T04:43:21.032Z,32.50
2023-01-28T04:45:48.859Z,32.40
2023-01-28T04:48:17.072Z,32.20
2023-01-28T04:50:44.927Z,32.00
2023-01-28T04:53:12.376Z,31.70
2023-01-28T04:55:39.527Z,31.30
2023-01-28T04:58:06.653Z,30.60
2023-01-28T05:00:33.723Z,31.00
2023-01-28T05:03:00.951Z,31.40
2023-01-28T05:05:27.952Z,31.70
2023-01-28T05:07:56.533Z,32.00
2023-01-28T05:10:25.288Z,32.10
2023-01-28T05:12:52.624Z,32.10
2023-01-28T05:15:20.909Z,31.50
2023-01-28T05:17:48.174Z,31.00
2023-01-28T05:20:16.015Z,30.60
2023-01-28T05:22:43.192Z,30.70
2023-01-28T05:25:10.653Z,30.70
2023-01-28T05:27:37.776Z,30.70
2023-01-28T05:30:06.776Z,30.70
2023-01-28T05:32:34.025Z,31.00
2023-01-28T05:35:01.373Z,31.30
2023-01-28T05:37:28.433Z,31.40
2023-01-28T05:39:55.520Z,30.90
2023-01-28T05:42:22.862Z,30.90
2023-01-28T05:44:49.889Z,30.90
2023-01-28T05:47:16.910Z,31.20
2023-01-28T05:49:44.020Z,31.50
2023-01-28T05:52:11.053Z,31.80
2023-01-28T05:54:38.156Z,31.80
2023-01-28T05:57:05.624Z,31.90
2023-01-28T05:59:32.729Z,32.00
2023-01-28T06:02:00.166Z,32.00
2023-01-28T06:04:27.283Z,31.90
2023-01-28T06:06:54.276Z,32.00
2023-01-28T06:09:21.360Z,32.10
2023-01-28T06:11:50.407Z,32.10
2023-01-28T06:14:17.581Z,32.20
2023-01-28T06:16:44.752Z,31.90
2023-01-28T06:19:11.958Z,31.90
2023-01-28T06:21:39.040Z,32.10
2023-01-28T06:24:06.241Z,32.10
2023-01-28T06:26:33.344Z,32.00
2023-01-28T06:29:00.422Z,32.20
2023-01-28T06:31:27.416Z,32.30
2023-01-28T06:33:54.725Z,32.40
2023-01-28T06:36:21.855Z,32.30
2023-01-28T06:38:48.890Z,32.40
2023-01-28T06:41:15.988Z,32.50
2023-01-28T06:43:43.060Z,32.60
2023-01-28T06:46:10.134Z,32.60
2023-01-28T06:48:37.298Z,32.40
2023-01-28T06:51:04.552Z,32.30
2023-01-28T06:53:31.587Z,32.40
2023-01-28T06:55:58.685Z,32.50
2023-01-28T06:58:25.739Z,32.60
2023-01-28T07:00:53.783Z,32.60
2023-01-28T07:03:21.052Z,31.90
2023-01-28T07:05:48.171Z,32.00
2023-01-28T07:08:15.231Z,32.20
2023-01-28T07:10:42.420Z,32.30
2023-01-28T07:13:10.165Z,32.40
2023-01-28T07:15:37.451Z,32.50
2023-01-28T07:18:04.508Z,32.70
2023-01-28T07:20:31.603Z,32.70
2023-01-28T07:22:58.674Z,32.50
2023-01-28T07:25:25.743Z,31.70
2023-01-28T07:27:53.689Z,31.50
2023-01-28T07:30:21.534Z,31.00
2023-01-28T07:32:54.443Z,31.00
2023-01-28T07:35:21.871Z,31.20
2023-01-28T07:37:56.523Z,31.70
2023-01-28T07:40:24.531Z,32.00
2023-01-28T07:42:52.657Z,32.30
2023-01-28T07:45:19.913Z,32.30
2023-01-28T07:47:57.827Z,32.30
2023-01-28T07:50:25.553Z,32.10
2023-01-28T07:52:52.583Z,31.90
2023-01-28T07:55:19.648Z,31.80
2023-01-28T07:57:54.873Z,30.80
2023-01-28T08:00:23.779Z,31.20
2023-01-28T08:02:55.544Z,31.50
2023-01-28T08:05:22.776Z,31.70
2023-01-28T08:07:50.014Z,31.90
2023-01-28T08:10:18.574Z,32.20
2023-01-28T08:12:58.499Z,32.30
2023-01-28T08:15:26.032Z,32.50
2023-01-28T08:17:57.571Z,32.50
2023-01-28T08:20:26.476Z,32.50
2023-01-28T08:22:53.705Z,32.50
2023-01-28T08:25:21.226Z,32.60
2023-01-28T08:27:48.426Z,32.60
2023-01-28T08:30:16.201Z,32.70
2023-01-28T08:32:43.492Z,32.80
2023-01-28T08:35:10.582Z,32.90
2023-01-28T08:37:37.640Z,33.00
2023-01-28T08:40:05.216Z,32.90
2023-01-28T08:42:32.467Z,32.90
2023-01-28T08:44:59.587Z,32.80
2023-01-28T08:47:26.581Z,33.00
2023-01-28T08:49:53.820Z,32.90
2023-01-28T08:52:20.861Z,33.00
2023-01-28T08:54:48.119Z,33.10
2023-01-28T08:57:15.283Z,33.10
2023-01-28T08:59:45.171Z,33.20
2023-01-28T09:02:30.222Z,32.90
2023-01-28T09:04:58.794Z,33.00
2023-01-28T09:07:25.917Z,32.90
2023-01-28T09:09:52.996Z,32.70
2023-01-28T09:12:20.155Z,32.90
2023-01-28T09:14:47.256Z,32.90
2023-01-28T09:17:14.299Z,33.10
2023-01-28T09:19:41.352Z,33.10
2023-01-28T09:22:08.349Z,33.20
2023-01-28T09:24:37.860Z,33.20
2023-01-28T09:27:05.902Z,33.20
2023-01-28T09:29:34.783Z,33.00
2023-01-28T09:32:02.167Z,32.00
2023-01-28T09:34:29.398Z,31.70
2023-01-28T09:36:57.148Z,31.80
2023-01-28T09:39:25.837Z,31.90
2023-01-28T09:42:46.957Z,31.90
2023-01-28T09:45:20.538Z,32.20
2023-01-28T09:47:56.146Z,32.60
2023-01-28T09:50:40.157Z,32.80
2023-01-28T09:53:11.694Z,31.70
2023-01-28T09:55:41.952Z,31.20
2023-01-28T09:58:15.789Z,31.30
2023-01-28T10:00:52.142Z,31.70
2023-01-28T10:03:28.228Z,32.00
2023-01-28T10:06:00.849Z,32.50
2023-01-28T10:08:50.663Z,31.90
2023-01-28T10:11:34.089Z,31.90
2023-01-28T10:14:11.524Z,30.90
2023-01-28T10:16:49.258Z,31.00
2023-01-28T10:19:27.562Z,31.50
2023-01-28T10:22:13.820Z,30.90
2023-01-28T10:24:45.574Z,31.20
2023-01-28T10:27:20.542Z,31.70
2023-01-28T10:29:50.188Z,32.00
2023-01-28T10:32:35.867Z,32.20
2023-01-28T10:35:03.682Z,32.10
2023-01-28T10:37:40.247Z,32.20
2023-01-28T10:40:18.076Z,32.30
2023-01-28T10:42:45.773Z,32.50
2023-01-28T10:45:20.743Z,32.20
2023-01-28T10:48:03.289Z,30.90
2023-01-28T10:50:32.178Z,30.10
2023-01-28T10:53:02.077Z,29.80
2023-01-28T10:56:00.121Z,30.10
2023-01-28T10:58:33.867Z,30.20
2023-01-28T11:01:03.787Z,30.30
2023-01-28T11:03:31.641Z,30.30
2023-01-28T11:05:59.557Z,30.60
2023-01-28T11:08:28.685Z,30.70
2023-01-28T11:10:57.219Z,29.60
2023-01-28T11:13:29.801Z,29.10
2023-01-28T11:16:04.436Z,29.80
2023-01-28T11:18:46.475Z,30.00
2023-01-28T11:21:20.032Z,30.40
2023-01-28T11:24:14.714Z,30.90
2023-01-28T11:26:49.493Z,30.90
2023-01-28T11:29:30.393Z,30.80
2023-01-28T11:31:58.618Z,31.20
2023-01-28T11:34:33.614Z,30.00
2023-01-28T11:37:16.413Z,30.50
2023-01-28T11:39:43.633Z,30.90
2023-01-28T11:42:22.245Z,31.00
2023-01-28T11:44:50.282Z,30.90
2023-01-28T11:47:46.039Z,31.30
2023-01-28T11:50:31.199Z,31.60
2023-01-28T11:53:16.790Z,31.70
2023-01-28T11:56:01.601Z,32.10
2023-01-28T11:59:10.762Z,32.20
2023-01-28T12:02:10.149Z,32.30
2023-01-28T12:05:02.622Z,32.10
2023-01-28T12:07:29.656Z,32.40
2023-01-28T12:10:49.378Z,32.50
2023-01-28T12:13:44.868Z,32.90
2023-01-28T12:16:28.661Z,33.20
2023-01-28T12:18:59.362Z,33.10
2023-01-28T12:21:38.352Z,32.30
2023-01-28T12:24:24.420Z,31.90
2023-01-28T12:27:00.374Z,32.50
2023-01-28T12:29:42.301Z,32.80
2023-01-28T12:32:39.456Z,32.30
2023-01-28T12:35:08.012Z,32.30
2023-01-28T12:37:49.362Z,31.30
2023-01-28T12:40:37.455Z,29.80
2023-01-28T12:43:26.429Z,29.00
2023-01-28T12:46:05.338Z,30.00
2023-01-28T12:48:41.002Z,30.10
2023-01-28T12:51:17.122Z,29.40
2023-01-28T12:53:53.732Z,29.60
2023-01-28T12:56:25.575Z,30.70
2023-01-28T12:58:58.324Z,30.40
2023-01-28T13:01:43.115Z,30.80
2023-01-28T13:04:31.147Z,31.60
2023-01-28T13:07:12.836Z,32.30
2023-01-28T13:10:08.916Z,31.00
2023-01-28T13:12:42.323Z,31.20
2023-01-28T13:15:18.411Z,31.70
2023-01-28T13:18:29.708Z,31.80
2023-01-28T13:20:57.028Z,32.10
2023-01-28T13:23:28.629Z,32.80
2023-01-28T13:25:56.464Z,33.10
2023-01-28T13:28:33.560Z,32.10
2023-01-28T13:31:17.893Z,31.30
2023-01-28T13:33:53.955Z,30.70
2023-01-28T13:36:31.446Z,29.80
2023-01-28T13:39:07.346Z,29.00
2023-01-28T13:41:42.705Z,29.30
2023-01-28T13:44:30.573Z,29.80
2023-01-28T13:47:21.873Z,29.80
2023-01-28T13:50:14.006Z,30.60
2023-01-28T13:52:49.024Z,31.10
2023-01-28T13:55:37.416Z,31.70
2023-01-28T13:58:31.770Z,31.60
2023-01-28T14:01:26.407Z,31.80
2023-01-28T14:04:24.870Z,31.40
2023-01-28T14:07:07.100Z,31.50
2023-01-28T14:09:46.118Z,31.30
2023-01-28T14:12:19.796Z,31.70
2023-01-28T14:14:58.745Z,31.60
2023-01-28T14:17:43.736Z,31.20
2023-01-28T14:20:37.942Z,30.50
2023-01-28T14:23:07.203Z,29.90
2023-01-28T14:25:58.280Z,30.10
2023-01-28T14:28:40.325Z,30.00
2023-01-28T14:31:23.115Z,30.40
2023-01-28T14:33:50.796Z,30.10
2023-01-28T14:36:18.077Z,30.00
2023-01-28T14:38:46.645Z,29.30
2023-01-28T14:41:26.657Z,29.90
2023-01-28T14:43:55.962Z,29.60
2023-01-28T14:46:50.231Z,29.90
2023-01-28T14:49:23.328Z,30.60
2023-01-28T14:52:05.394Z,30.70
2023-01-28T14:55:09.471Z,30.90
2023-01-28T14:58:09.935Z,31.10
2023-01-28T15:00:37.126Z,31.90
2023-01-28T15:03:27.172Z,31.90
2023-01-28T15:06:27.989Z,31.70
2023-01-28T15:09:10.131Z,31.20
2023-01-28T15:11:41.365Z,30.90
2023-01-28T15:14:20.317Z,30.40
2023-01-28T15:16:51.033Z,30.20
2023-01-28T15:19:22.753Z,30.40
2023-01-28T15:21:49.918Z,29.40
2023-01-28T15:24:19.057Z,29.10
2023-01-28T15:26:48.171Z,28.90
2023-01-28T15:29:33.654Z,27.50
2023-01-28T15:32:01.492Z,26.70
2023-01-28T15:34:31.749Z,26.80
2023-01-28T15:37:00.113Z,26.40
2023-01-28T15:39:29.766Z,26.70
2023-01-28T15:42:04.699Z,26.80
2023-01-28T15:44:43.768Z,25.70
2023-01-28T15:47:18.689Z,25.40
2023-01-28T15:49:50.267Z,26.30
2023-01-28T15:52:17.600Z,27.10
2023-01-28T15:54:51.672Z,27.80
2023-01-28T15:57:27.726Z,28.10
2023-01-28T16:00:07.578Z,28.00
2023-01-28T16:02:46.499Z,27.30
2023-01-28T16:05:29.240Z,27.00
2023-01-28T16:07:58.413Z,27.50
2023-01-28T16:10:30.388Z,27.40
2023-01-28T16:13:20.246Z,27.10
2023-01-28T16:15:50.358Z,26.60
2023-01-28T16:18:51.789Z,25.80
2023-01-28T16:21:38.634Z,26.70
2023-01-28T16:24:23.264Z,26.20
2023-01-28T16:27:00.920Z,27.00
2023-01-28T16:29:30.973Z,26.80
2023-01-28T16:32:04.121Z,26.50
2023-01-28T16:34:31.301Z,26.80
2023-01-28T16:37:01.951Z,27.80
2023-01-28T16:39:30.407Z,27.80
2023-01-28T16:41:58.626Z,27.90
2023-01-28T16:44:25.755Z,27.20
2023-01-28T16:46:52.940Z,26.70
2023-01-28T16:49:22.351Z,27.20
2023-01-28T16:51:52.832Z,27.80
2023-01-28T16:54:20.029Z,28.10
2023-01-28T16:56:47.392Z,28.10
2023-01-28T16:59:16.351Z,28.50
2023-01-28T17:01:48.159Z,27.70
2023-01-28T17:04:15.595Z,27.70
2023-01-28T17:06:44.720Z,27.70
2023-01-28T17:09:13.575Z,26.30
2023-01-28T17:11:41.469Z,26.20
2023-01-28T17:14:10.070Z,25.90
2023-01-28T17:16:37.838Z,25.70
2023-01-28T17:19:06.662Z,25.80
2023-01-28T17:21:33.984Z,26.10
2023-01-28T17:24:02.491Z,25.10
2023-01-28T17:26:29.765Z,24.70
2023-01-28T17:28:58.516Z,23.60
2023-01-28T17:31:28.485Z,23.30
2023-01-28T17:33:58.164Z,23.40
2023-01-28T17:36:26.617Z,23.10
2023-01-28T17:38:54.810Z,23.60
2023-01-28T17:41:21.979Z,24.30
2023-01-28T17:43:54.066Z,24.70
2023-01-28T17:46:22.706Z,25.30
2023-01-28T17:48:50.078Z,25.90
2023-01-28T17:51:18.784Z,26.30
2023-01-28T17:53:50.436Z,26.60
2023-01-28T17:56:23.100Z,26.30
2023-01-28T17:58:55.359Z,25.80
2023-01-28T18:01:24.133Z,25.50
2023-01-28T18:03:51.495Z,25.70
2023-01-28T18:06:18.967Z,25.90
2023-01-28T18:08:46.250Z,26.70
2023-01-28T18:11:15.566Z,27.00
2023-01-28T18:13:45.349Z,26.90
2023-01-28T18:16:15.784Z,27.10
2023-01-28T18:18:43.598Z,27.60
2023-01-28T18:21:51.264Z,27.80
2023-01-28T18:24:20.902Z,27.10
2023-01-28T18:26:48.074Z,26.50
2023-01-28T18:29:19.120Z,26.70
2023-01-28T18:31:49.521Z,25.90
2023-01-28T18:34:17.757Z,25.90
2023-01-28T18:36:44.895Z,25.40
2023-01-28T18:39:13.385Z,25.80
2023-01-28T18:41:41.180Z,26.50
2023-01-28T18:44:13.447Z,25.60
2023-01-28T18:46:41.247Z,25.50
2023-01-28T18:49:08.693Z,25.70
2023-01-28T18:51:36.056Z,25.80
2023-01-28T18:54:05.520Z,25.70
2023-01-28T18:56:36.254Z,25.10
2023-01-28T18:59:05.627Z,25.30
2023-01-28T19:01:34.611Z,26.40
2023-01-28T19:04:02.707Z,27.00
2023-01-28T19:06:31.081Z,26.30
2023-01-28T19:09:00.530Z,25.40
2023-01-28T19:11:30.472Z,25.50
2023-01-28T19:13:57.872Z,25.60
2023-01-28T19:16:26.223Z,25.70
2023-01-28T19:19:00.672Z,25.10
2023-01-28T19:21:29.283Z,25.50
2023-01-28T19:24:01.735Z,25.00
2023-01-28T19:26:30.985Z,24.60
2023-01-28T19:28:59.058Z,23.30
2023-01-28T19:31:27.472Z,23.70
2023-01-28T19:33:56.834Z,23.20
2023-01-28T19:36:28.044Z,22.70
2023-01-28T19:39:03.236Z,23.10
2023-01-28T19:41:30.992Z,23.80
2023-01-28T19:43:58.531Z,24.50
2023-01-28T19:46:26.419Z,24.10
2023-01-28T19:48:54.031Z,23.70
2023-01-28T19:51:21.673Z,23.90
2023-01-28T19:53:54.358Z,24.10
2023-01-28T19:56:23.692Z,23.80
2023-01-28T19:58:52.907Z,23.20
2023-01-28T20:01:27.263Z,23.30
2023-01-28T20:03:59.347Z,22.70
2023-01-28T20:06:29.666Z,23.20
2023-01-28T20:09:01.698Z,23.20
2023-01-28T20:11:29.029Z,23.10
2023-01-28T20:13:56.431Z,22.40
2023-01-28T20:16:29.539Z,23.70
2023-01-28T20:18:58.014Z,23.60
2023-01-28T20:21:25.529Z,24.40
2023-01-28T20:23:54.313Z,24.50
2023-01-28T20:26:24.198Z,25.10
2023-01-28T20:28:51.659Z,24.90
2023-01-28T20:31:20.166Z,25.00
2023-01-28T20:33:47.884Z,25.20
2023-01-28T20:36:15.470Z,24.70
2023-01-28T20:38:45.442Z,24.50
2023-01-28T20:41:15.496Z,24.30
2023-01-28T20:43:44.144Z,24.20
2023-01-28T20:46:14.303Z,24.60
2023-01-28T20:48:42.104Z,25.10
2023-01-28T20:51:13.995Z,25.10
2023-01-28T20:53:41.864Z,24.90
2023-01-28T20:56:10.601Z,24.70
2023-01-28T20:58:37.796Z,23.50
2023-01-28T21:01:05.508Z,24.10
2023-01-28T21:03:32.807Z,24.60
2023-01-28T21:06:01.421Z,24.70
2023-01-28T21:08:28.473Z,25.80
2023-01-28T21:10:56.330Z,25.40
2023-01-28T21:13:23.637Z,25.90
2023-01-28T21:15:55.975Z,24.90
2023-01-28T21:18:23.528Z,24.80
2023-01-28T21:20:51.551Z,25.90
2023-01-28T21:23:18.952Z,26.00
2023-01-28T21:25:47.334Z,25.70
2023-01-28T21:28:14.485Z,25.60
2023-01-28T21:30:42.100Z,24.90
2023-01-28T21:33:09.851Z,25.80
2023-01-28T21:35:42.342Z,25.10
2023-01-28T21:38:10.283Z,25.50
2023-01-28T21:40:37.963Z,26.30
2023-01-28T21:43:05.510Z,25.80
2023-01-28T21:45:35.136Z,25.80
2023-01-28T21:48:02.179Z,25.40
2023-01-28T21:50:30.325Z,25.00
2023-01-28T21:52:57.421Z,24.20
2023-01-28T21:55:24.520Z,24.30
2023-01-28T21:58:13.881Z,24.70
2023-01-28T22:00:40.917Z,24.10
2023-01-28T22:03:08.033Z,22.50
2023-01-28T22:05:35.747Z,22.80
2023-01-28T22:08:02.873Z,23.20
2023-01-28T22:10:30.026Z,22.10
2023-01-28T22:12:57.200Z,21.90
2023-01-28T22:15:24.368Z,22.30
2023-01-28T22:17:51.381Z,21.80
2023-01-28T22:20:18.790Z,22.10
2023-01-28T22:22:46.071Z,22.10
2023-01-28T22:25:13.131Z,22.10
2023-01-28T22:27:40.220Z,21.80
2023-01-28T22:30:08.099Z,21.60
2023-01-28T22:32:35.157Z,21.90
2023-01-28T22:35:04.838Z,22.40
2023-01-28T22:37:31.965Z,22.60
2023-01-28T22:39:59.084Z,23.30
2023-01-28T22:42:26.559Z,23.40
2023-01-28T22:44:53.569Z,23.80
2023-01-28T22:47:20.832Z,23.70
2023-01-28T22:49:48.388Z,23.70
2023-01-28T22:52:15.570Z,24.40
2023-01-28T22:54:42.843Z,25.00
2023-01-28T22:57:10.040Z,24.20
2023-01-28T22:59:38.153Z,24.00
2023-01-28T23:02:06.181Z,24.70
2023-01-28T23:04:33.352Z,25.10
2023-01-28T23:07:00.486Z,24.80
2023-01-28T23:09:27.606Z,25.20
2023-01-28T23:11:55.178Z,24.90
2023-01-28T23:14:40.764Z,24.70
2023-01-28T23:17:28.744Z,25.60
2023-01-28T23:20:14.341Z,25.00
2023-01-28T23:23:00.399Z,24.00
2023-01-28T23:25:27.525Z,24.70
2023-01-28T23:27:54.581Z,24.50
2023-01-28T23:30:25.387Z,24.00
2023-01-28T23:32:56.779Z,24.00
2023-01-28T23:35:26.044Z,23.70
2023-01-28T23:37:53.416Z,23.10
2023-01-28T23:40:24.734Z,23.40
2023-01-28T23:42:52.667Z,23.20
2023-01-28T23:45:20.795Z,23.80
2023-01-28T23:47:48.459Z,23.50
2023-01-28T23:50:16.526Z,23.40
2023-01-28T23:52:43.799Z,23.70
2023-01-28T23:55:10.863Z,24.10
2023-01-28T23:57:37.992Z,23.40
